James Turecamo — WDC7565 — position and weather

sailwx.info

Track history (hours):
 
Tides and Currents Weather Stations Pressure Air Temp Water Temp Dewpoint Dewpoint Depression Visibility Wind Speed Wind Dir Waves Ship Positions

James Turecamo

Owner: Moran Towing Corporation, New Canaan, CT. More information available from US FCC via Universal Licensing System and Coast Guard Vessel Documentation Center.

Last reported at 2016-May-24 15:33 UTC. Time now 2016-May-24 15:43 UTC.
Position N 40°39' W 074°08'.

Length 27 m; draft 4.5 m.

Type: Tug. MMSI: 367073380.

Date/timePositionNaut miles runAvg speedWind from/ knotsBaromVisibWave heightAir tempDewpointWater temp
2016-May-24 15:33N 40°39' W 074°08'3 0.9
2016-May-24 12:34N 40°39' W 074°04'2 1.9
2016-May-24 11:34N 40°37' W 074°03'2 1.5
2016-May-24 10:33N 40°36' W 074°02'4 4.2
2016-May-24 09:34N 40°40' W 074°04'0 0.0
2016-May-24 08:33N 40°40' W 074°04'1 1.3
2016-May-24 07:33N 40°39' W 074°06'0 0.3
2016-May-24 06:14N 40°39' W 074°06'0 0.0
2016-May-24 05:33N 40°39' W 074°06'3 3.0
2016-May-24 04:33N 40°41' W 074°08'4 3.6
2016-May-24 03:34N 40°39' W 074°04'1 0.8
2016-May-24 02:34N 40°40' W 074°04'0 0.0
2016-May-24 01:34N 40°40' W 074°04'0 0.0
2016-May-24 00:34N 40°40' W 074°04'1 0.8
2016-May-23 23:34N 40°40' W 074°03'2 2.2
2016-May-23 22:34N 40°41' W 074°01'6 0.7
2016-May-23 14:25N 40°38' W 074°08'2 2.1
2016-May-23 13:33N 40°39' W 074°05'2 1.8
2016-May-23 12:33N 40°39' W 074°08'2 0.4
2016-May-23 06:33N 40°41' W 074°08'6 2.0
2016-May-23 03:28N 40°47' W 074°05'2 2.6
2016-May-23 02:30N 40°44' W 074°06'2 2.0
2016-May-23 01:33N 40°43' W 074°07'4 3.8
2016-May-23 00:33N 40°39' W 074°09'1 1.0
2016-May-22 23:32N 40°38' W 074°08'0 0.0
2016-May-22 15:05N 40°38' W 074°08'0 0.0
2016-May-22 13:33N 40°38' W 074°08'0 0.0
2016-May-21 19:13N 40°38' W 074°08'0 0.0
2016-May-21 15:30N 40°38' W 074°08'0 0.0
2016-May-21 14:34N 40°38' W 074°08'3 2.5
2016-May-21 13:30N 40°39' W 074°11'1 1.5
2016-May-21 12:33N 40°39' W 074°09'1 0.2
2016-May-21 04:31N 40°38' W 074°08'4 3.8
2016-May-21 03:34N 40°41' W 074°04'2 1.9
2016-May-21 02:33N 40°39' W 074°03'4 3.7
2016-May-21 01:33N 40°38' W 074°08'0 0.0
2016-May-21 00:33N 40°38' W 074°08'0 0.0
2016-May-20 23:33N 40°38' W 074°08'0 0.0
2016-May-20 22:32N 40°38' W 074°08'0 0.0
2016-May-20 21:10N 40°38' W 074°08'3 0.7
2016-May-20 17:19N 40°39' W 074°11'3 3.7
2016-May-20 16:33N 40°38' W 074°08'0 0.0
2016-May-20 15:34N 40°38' W 074°08'0 0.0
2016-May-20 14:34N 40°38' W 074°08'1 1.5
2016-May-20 13:33N 40°39' W 074°06'4 4.4
2016-May-20 12:33N 40°40' W 074°00'3 3.0
2016-May-20 11:33N 40°39' W 074°04'2 1.6
2016-May-20 10:33N 40°39' W 074°06'2 0.3
2016-May-20 05:32N 40°38' W 074°08'4 3.5
2016-May-20 04:30N 40°37' W 074°03'4 0.7
2016-May-19 23:24N 40°38' W 074°08'2 2.0
2016-May-19 22:22N 40°41' W 074°08'2 0.7
2016-May-19 19:21N 40°38' W 074°08'0 0.0
2016-May-19 18:33N 40°38' W 074°08'0 0.0
2016-May-19 17:31N 40°38' W 074°08'3 3.2
2016-May-19 16:31N 40°41' W 074°10'1 0.9
2016-May-19 15:33N 40°41' W 074°08'2 2.5
2016-May-19 14:34N 40°39' W 074°09'4 4.3
2016-May-19 13:33N 40°41' W 074°04'1 0.5
2016-May-19 12:33N 40°41' W 074°04'3 3.2
2016-May-19 11:34N 40°40' W 074°01'5 4.5
2016-May-19 10:33N 40°39' W 074°06'1 1.2
2016-May-19 09:33N 40°38' W 074°08'0 0.0
2016-May-19 08:34N 40°38' W 074°08'0 0.0
2016-May-19 07:33N 40°38' W 074°08'0 0.0
2016-May-19 05:33N 40°38' W 074°08'0 0.0
2016-May-19 04:33N 40°38' W 074°08'0 0.0
2016-May-19 03:33N 40°38' W 074°08'0 0.0
2016-May-19 02:33N 40°38' W 074°08'0 0.0
2016-May-19 01:32N 40°38' W 074°08'0 0.0
2016-May-19 00:33N 40°38' W 074°08'0 0.0
2016-May-18 23:33N 40°38' W 074°08'2 1.5
2016-May-18 22:33N 40°39' W 074°06'0 0.0
2016-May-18 21:34N 40°39' W 074°06'1 1.3
2016-May-18 20:24N 40°38' W 074°08'0 0.0
2016-May-18 19:09N 40°38' W 074°08'0 0.0
2016-May-18 18:31N 40°38' W 074°08'0 0.0
2016-May-18 17:32N 40°38' W 074°08'0 0.0
2016-May-18 16:33N 40°38' W 074°08'0 0.0
2016-May-18 15:33N 40°38' W 074°08'0 0.0
2016-May-18 14:32N 40°38' W 074°08'0 0.0
2016-May-18 13:33N 40°38' W 074°08'1 1.1
2016-May-18 12:33N 40°39' W 074°09'0 0.1
2016-May-18 11:32N 40°39' W 074°09'2 0.5
2016-May-18 08:33N 40°39' W 074°11'2 0.5
2016-May-18 04:33N 40°39' W 074°09'8 2.1
2016-May-18 00:28N 40°47' W 074°05'2 2.6
2016-May-17 23:33N 40°44' W 074°05'1 0.6
2016-May-17 21:23N 40°44' W 074°07'6 1.4
2016-May-17 17:30N 40°38' W 074°08'0 0.0
2016-May-17 11:30N 40°38' W 074°08'0 0.0
2016-May-17 10:33N 40°38' W 074°08'0 0.0
2016-May-17 09:18N 40°38' W 074°08'0 0.0
2016-May-17 08:18N 40°38' W 074°08'0 0.0
2016-May-17 07:30N 40°38' W 074°08'0 0.0
2016-May-17 06:30N 40°38' W 074°08'0 0.0
2016-May-17 04:33N 40°38' W 074°08'0 0.0
2016-May-17 03:33N 40°38' W 074°08'0 0.0
2016-May-17 02:27N 40°38' W 074°08'2 0.1
2016-May-16 14:19N 40°39' W 074°06'2 2.1
2016-May-16 13:27N 40°38' W 074°03'0 0.0
2016-May-16 06:30N 40°38' W 074°04'2 0.2
2016-May-15 22:15N 40°39' W 074°05'2 0.2
2016-May-15 14:05N 40°38' W 074°08'0 0.0
2016-May-15 13:32N 40°38' W 074°08'0 0.0
2016-May-15 08:33N 40°38' W 074°08'2 2.4
2016-May-15 07:33N 40°41' W 074°09'2 2.2
2016-May-15 06:30N 40°38' W 074°08'0 0.0
2016-May-15 05:30N 40°38' W 074°08'0 0.0
2016-May-15 04:23N 40°38' W 074°08'1 0.8
2016-May-15 03:33N 40°38' W 074°09'2 1.0
2016-May-15 01:05N 40°38' W 074°12'3 5.7
2016-May-15 00:33N 40°38' W 074°08'0 0.0
2016-May-14 23:26N 40°38' W 074°08'0 0.0
2016-May-14 22:15N 40°38' W 074°08'0 0.0
2016-May-14 21:32N 40°38' W 074°08'0 0.0
2016-May-14 20:33N 40°38' W 074°08'0 0.0
2016-May-14 19:33N 40°38' W 074°08'0 0.0
2016-May-14 18:33N 40°38' W 074°08'0 0.0
2016-May-14 17:33N 40°38' W 074°08'0 0.0
2016-May-14 16:33N 40°38' W 074°08'0 0.0
2016-May-14 15:33N 40°38' W 074°08'  
Track history (hours):
 
Tides and Currents Weather Stations Pressure Air Temp Water Temp Dewpoint Dewpoint Depression Visibility Wind Speed Wind Dir Waves Ship Positions

James Turecamo

Owner: Moran Towing Corporation, New Canaan, CT. More information available from US FCC via Universal Licensing System and Coast Guard Vessel Documentation Center.

Last reported at 2016-May-24 15:33 UTC. Time now 2016-May-24 15:43 UTC.
Position N 40°39' W 074°08'.

Length 27 m; draft 4.5 m.

Type: Tug. MMSI: 367073380.

Date/timePositionNaut miles runAvg speedWind from/ knotsBaromVisibWave heightAir tempDewpointWater temp
2016-May-24 15:33N 40°39' W 074°08'3 0.9
2016-May-24 12:34N 40°39' W 074°04'2 1.9
2016-May-24 11:34N 40°37' W 074°03'2 1.5
2016-May-24 10:33N 40°36' W 074°02'4 4.2
2016-May-24 09:34N 40°40' W 074°04'0 0.0
2016-May-24 08:33N 40°40' W 074°04'1 1.3
2016-May-24 07:33N 40°39' W 074°06'0 0.3
2016-May-24 06:14N 40°39' W 074°06'0 0.0
2016-May-24 05:33N 40°39' W 074°06'3 3.0
2016-May-24 04:33N 40°41' W 074°08'4 3.6
2016-May-24 03:34N 40°39' W 074°04'1 0.8
2016-May-24 02:34N 40°40' W 074°04'0 0.0
2016-May-24 01:34N 40°40' W 074°04'0 0.0
2016-May-24 00:34N 40°40' W 074°04'1 0.8
2016-May-23 23:34N 40°40' W 074°03'2 2.2
2016-May-23 22:34N 40°41' W 074°01'6 0.7
2016-May-23 14:25N 40°38' W 074°08'2 2.1
2016-May-23 13:33N 40°39' W 074°05'2 1.8
2016-May-23 12:33N 40°39' W 074°08'2 0.4
2016-May-23 06:33N 40°41' W 074°08'6 2.0
2016-May-23 03:28N 40°47' W 074°05'2 2.6
2016-May-23 02:30N 40°44' W 074°06'2 2.0
2016-May-23 01:33N 40°43' W 074°07'4 3.8
2016-May-23 00:33N 40°39' W 074°09'1 1.0
2016-May-22 23:32N 40°38' W 074°08'0 0.0
2016-May-22 15:05N 40°38' W 074°08'0 0.0
2016-May-22 13:33N 40°38' W 074°08'0 0.0
2016-May-21 19:13N 40°38' W 074°08'0 0.0
2016-May-21 15:30N 40°38' W 074°08'0 0.0
2016-May-21 14:34N 40°38' W 074°08'3 2.5
2016-May-21 13:30N 40°39' W 074°11'1 1.5
2016-May-21 12:33N 40°39' W 074°09'1 0.2
2016-May-21 04:31N 40°38' W 074°08'4 3.8
2016-May-21 03:34N 40°41' W 074°04'2 1.9
2016-May-21 02:33N 40°39' W 074°03'4 3.7
2016-May-21 01:33N 40°38' W 074°08'0 0.0
2016-May-21 00:33N 40°38' W 074°08'0 0.0
2016-May-20 23:33N 40°38' W 074°08'0 0.0
2016-May-20 22:32N 40°38' W 074°08'0 0.0
2016-May-20 21:10N 40°38' W 074°08'3 0.7
2016-May-20 17:19N 40°39' W 074°11'3 3.7
2016-May-20 16:33N 40°38' W 074°08'0 0.0
2016-May-20 15:34N 40°38' W 074°08'0 0.0
2016-May-20 14:34N 40°38' W 074°08'1 1.5
2016-May-20 13:33N 40°39' W 074°06'4 4.4
2016-May-20 12:33N 40°40' W 074°00'3 3.0
2016-May-20 11:33N 40°39' W 074°04'2 1.6
2016-May-20 10:33N 40°39' W 074°06'2 0.3
2016-May-20 05:32N 40°38' W 074°08'4 3.5
2016-May-20 04:30N 40°37' W 074°03'4 0.7
2016-May-19 23:24N 40°38' W 074°08'2 2.0
2016-May-19 22:22N 40°41' W 074°08'2 0.7
2016-May-19 19:21N 40°38' W 074°08'0 0.0
2016-May-19 18:33N 40°38' W 074°08'0 0.0
2016-May-19 17:31N 40°38' W 074°08'3 3.2
2016-May-19 16:31N 40°41' W 074°10'1 0.9
2016-May-19 15:33N 40°41' W 074°08'2 2.5
2016-May-19 14:34N 40°39' W 074°09'4 4.3
2016-May-19 13:33N 40°41' W 074°04'1 0.5
2016-May-19 12:33N 40°41' W 074°04'3 3.2
2016-May-19 11:34N 40°40' W 074°01'5 4.5
2016-May-19 10:33N 40°39' W 074°06'1 1.2
2016-May-19 09:33N 40°38' W 074°08'0 0.0
2016-May-19 08:34N 40°38' W 074°08'0 0.0
2016-May-19 07:33N 40°38' W 074°08'0 0.0
2016-May-19 05:33N 40°38' W 074°08'0 0.0
2016-May-19 04:33N 40°38' W 074°08'0 0.0
2016-May-19 03:33N 40°38' W 074°08'0 0.0
2016-May-19 02:33N 40°38' W 074°08'0 0.0
2016-May-19 01:32N 40°38' W 074°08'0 0.0
2016-May-19 00:33N 40°38' W 074°08'0 0.0
2016-May-18 23:33N 40°38' W 074°08'2 1.5
2016-May-18 22:33N 40°39' W 074°06'0 0.0
2016-May-18 21:34N 40°39' W 074°06'1 1.3
2016-May-18 20:24N 40°38' W 074°08'0 0.0
2016-May-18 19:09N 40°38' W 074°08'0 0.0
2016-May-18 18:31N 40°38' W 074°08'0 0.0
2016-May-18 17:32N 40°38' W 074°08'0 0.0
2016-May-18 16:33N 40°38' W 074°08'0 0.0
2016-May-18 15:33N 40°38' W 074°08'0 0.0
2016-May-18 14:32N 40°38' W 074°08'0 0.0
2016-May-18 13:33N 40°38' W 074°08'1 1.1
2016-May-18 12:33N 40°39' W 074°09'0 0.1
2016-May-18 11:32N 40°39' W 074°09'2 0.5
2016-May-18 08:33N 40°39' W 074°11'2 0.5
2016-May-18 04:33N 40°39' W 074°09'8 2.1
2016-May-18 00:28N 40°47' W 074°05'2 2.6
2016-May-17 23:33N 40°44' W 074°05'1 0.6
2016-May-17 21:23N 40°44' W 074°07'6 1.4
2016-May-17 17:30N 40°38' W 074°08'0 0.0
2016-May-17 11:30N 40°38' W 074°08'0 0.0
2016-May-17 10:33N 40°38' W 074°08'0 0.0
2016-May-17 09:18N 40°38' W 074°08'0 0.0
2016-May-17 08:18N 40°38' W 074°08'0 0.0
2016-May-17 07:30N 40°38' W 074°08'0 0.0
2016-May-17 06:30N 40°38' W 074°08'0 0.0
2016-May-17 04:33N 40°38' W 074°08'0 0.0
2016-May-17 03:33N 40°38' W 074°08'0 0.0
2016-May-17 02:27N 40°38' W 074°08'2 0.1
2016-May-16 14:19N 40°39' W 074°06'2 2.1
2016-May-16 13:27N 40°38' W 074°03'0 0.0
2016-May-16 06:30N 40°38' W 074°04'2 0.2
2016-May-15 22:15N 40°39' W 074°05'2 0.2
2016-May-15 14:05N 40°38' W 074°08'0 0.0
2016-May-15 13:32N 40°38' W 074°08'0 0.0
2016-May-15 08:33N 40°38' W 074°08'2 2.4
2016-May-15 07:33N 40°41' W 074°09'2 2.2
2016-May-15 06:30N 40°38' W 074°08'0 0.0
2016-May-15 05:30N 40°38' W 074°08'0 0.0
2016-May-15 04:23N 40°38' W 074°08'1 0.8
2016-May-15 03:33N 40°38' W 074°09'2 1.0
2016-May-15 01:05N 40°38' W 074°12'3 5.7
2016-May-15 00:33N 40°38' W 074°08'0 0.0
2016-May-14 23:26N 40°38' W 074°08'0 0.0
2016-May-14 22:15N 40°38' W 074°08'0 0.0
2016-May-14 21:32N 40°38' W 074°08'0 0.0
2016-May-14 20:33N 40°38' W 074°08'0 0.0
2016-May-14 19:33N 40°38' W 074°08'0 0.0
2016-May-14 18:33N 40°38' W 074°08'0 0.0
2016-May-14 17:33N 40°38' W 074°08'0 0.0
2016-May-14 16:33N 40°38' W 074°08'0 0.0
2016-May-14 15:33N 40°38' W 074°08'  

Dump ship's entire track history